sensor_id;sensor_type;location;lat;lon;timestamp;pressure;altitude;pressure_sealevel;temperature;humidity
48810;BME280;40070;47.322;18.784;2022-11-14T00:01:50;1014.68;;;8.13;77.13
48810;BME280;40070;47.322;18.784;2022-11-14T00:03:52;1014.63;;;8.32;76.89
48810;BME280;40070;47.322;18.784;2022-11-14T00:05:55;1014.61;;;8.40;76.04
48810;BME280;40070;47.322;18.784;2022-11-14T00:07:57;1014.61;;;8.24;76.76
48810;BME280;40070;47.322;18.784;2022-11-14T00:10:00;1014.61;;;8.03;77.67
48810;BME280;40070;47.322;18.784;2022-11-14T00:12:02;1014.61;;;7.93;78.80
48810;BME280;40070;47.322;18.784;2022-11-14T00:14:04;1014.64;;;8.16;77.86
48810;BME280;40070;47.322;18.784;2022-11-14T00:16:07;1014.65;;;8.31;76.97
48810;BME280;40070;47.322;18.784;2022-11-14T00:18:09;1014.66;;;7.96;77.77
48810;BME280;40070;47.322;18.784;2022-11-14T00:20:12;1014.72;;;7.96;77.93
48810;BME280;40070;47.322;18.784;2022-11-14T00:22:14;1014.66;;;8.27;77.60
48810;BME280;40070;47.322;18.784;2022-11-14T00:24:16;1014.64;;;8.40;76.50
48810;BME280;40070;47.322;18.784;2022-11-14T00:26:19;1014.69;;;8.00;76.93
48810;BME280;40070;47.322;18.784;2022-11-14T00:28:21;1014.68;;;8.17;76.38
48810;BME280;40070;47.322;18.784;2022-11-14T00:30:24;1014.71;;;8.07;76.77
48810;BME280;40070;47.322;18.784;2022-11-14T00:32:26;1014.73;;;8.01;77.35
48810;BME280;40070;47.322;18.784;2022-11-14T00:34:28;1014.72;;;7.96;77.73
48810;BME280;40070;47.322;18.784;2022-11-14T00:36:31;1014.78;;;7.75;79.16
48810;BME280;40070;47.322;18.784;2022-11-14T00:38:33;1014.77;;;7.90;78.76
48810;BME280;40070;47.322;18.784;2022-11-14T00:40:36;1014.70;;;8.27;77.48
48810;BME280;40070;47.322;18.784;2022-11-14T00:42:38;1014.67;;;8.21;77.43
48810;BME280;40070;47.322;18.784;2022-11-14T00:44:40;1014.69;;;8.17;77.50
48810;BME280;40070;47.322;18.784;2022-11-14T00:46:43;1014.63;;;8.48;77.06
48810;BME280;40070;47.322;18.784;2022-11-14T00:48:45;1014.61;;;8.76;75.75
48810;BME280;40070;47.322;18.784;2022-11-14T00:50:47;1014.62;;;8.63;75.72
48810;BME280;40070;47.322;18.784;2022-11-14T00:52:50;1014.64;;;8.73;76.10
48810;BME280;40070;47.322;18.784;2022-11-14T00:54:52;1014.58;;;8.58;76.94
48810;BME280;40070;47.322;18.784;2022-11-14T00:56:55;1014.56;;;8.36;77.54
48810;BME280;40070;47.322;18.784;2022-11-14T00:58:57;1014.53;;;8.60;77.22
48810;BME280;40070;47.322;18.784;2022-11-14T01:00:59;1014.54;;;8.20;78.83
48810;BME280;40070;47.322;18.784;2022-11-14T01:03:02;1014.53;;;8.10;79.40
48810;BME280;40070;47.322;18.784;2022-11-14T01:05:04;1014.56;;;7.88;80.56
48810;BME280;40070;47.322;18.784;2022-11-14T01:07:07;1014.49;;;8.11;80.35
48810;BME280;40070;47.322;18.784;2022-11-14T01:09:09;1014.46;;;7.97;80.47
48810;BME280;40070;47.322;18.784;2022-11-14T01:11:14;1014.47;;;8.08;80.18
48810;BME280;40070;47.322;18.784;2022-11-14T01:13:17;1014.41;;;8.09;80.71
48810;BME280;40070;47.322;18.784;2022-11-14T01:15:19;1014.40;;;7.98;81.25
48810;BME280;40070;47.322;18.784;2022-11-14T01:17:22;1014.38;;;8.19;80.27
48810;BME280;40070;47.322;18.784;2022-11-14T01:19:24;1014.34;;;8.22;79.85
48810;BME280;40070;47.322;18.784;2022-11-14T01:21:26;1014.38;;;7.96;81.17
48810;BME280;40070;47.322;18.784;2022-11-14T01:23:29;1014.34;;;7.92;81.45
48810;BME280;40070;47.322;18.784;2022-11-14T01:25:32;1014.32;;;8.23;80.90
48810;BME280;40070;47.322;18.784;2022-11-14T01:27:34;1014.28;;;8.49;79.63
48810;BME280;40070;47.322;18.784;2022-11-14T01:29:37;1014.26;;;8.60;79.40
48810;BME280;40070;47.322;18.784;2022-11-14T01:31:39;1014.26;;;8.73;78.48
48810;BME280;40070;47.322;18.784;2022-11-14T01:33:41;1014.15;;;8.85;78.10
48810;BME280;40070;47.322;18.784;2022-11-14T01:35:44;1014.13;;;8.39;79.10
48810;BME280;40070;47.322;18.784;2022-11-14T01:37:46;1014.08;;;8.33;80.47
48810;BME280;40070;47.322;18.784;2022-11-14T01:39:48;1014.08;;;8.17;81.03
48810;BME280;40070;47.322;18.784;2022-11-14T01:41:51;1014.17;;;8.32;80.43
48810;BME280;40070;47.322;18.784;2022-11-14T01:43:53;1014.13;;;8.19;80.95
48810;BME280;40070;47.322;18.784;2022-11-14T01:46:03;1014.13;;;8.02;81.65
48810;BME280;40070;47.322;18.784;2022-11-14T01:48:07;1014.06;;;8.16;81.39
48810;BME280;40070;47.322;18.784;2022-11-14T01:50:18;1014.10;;;7.85;81.94
48810;BME280;40070;47.322;18.784;2022-11-14T01:52:25;1014.05;;;7.79;82.73
48810;BME280;40070;47.322;18.784;2022-11-14T01:54:29;1014.07;;;7.87;81.89
48810;BME280;40070;47.322;18.784;2022-11-14T01:56:35;1014.10;;;7.86;82.85
48810;BME280;40070;47.322;18.784;2022-11-14T01:58:40;1014.08;;;8.04;82.07
48810;BME280;40070;47.322;18.784;2022-11-14T02:00:43;1014.08;;;7.90;82.75
48810;BME280;40070;47.322;18.784;2022-11-14T02:02:45;1014.05;;;8.20;81.24
48810;BME280;40070;47.322;18.784;2022-11-14T02:04:56;1014.04;;;8.38;80.52
48810;BME280;40070;47.322;18.784;2022-11-14T02:07:01;1014.08;;;8.35;79.78
48810;BME280;40070;47.322;18.784;2022-11-14T02:09:05;1014.15;;;8.38;80.31
48810;BME280;40070;47.322;18.784;2022-11-14T02:11:11;1014.15;;;8.48;80.35
48810;BME280;40070;47.322;18.784;2022-11-14T02:13:13;1014.20;;;8.88;78.69
48810;BME280;40070;47.322;18.784;2022-11-14T02:15:16;1014.24;;;8.88;78.23
48810;BME280;40070;47.322;18.784;2022-11-14T02:17:18;1014.23;;;8.54;78.90
48810;BME280;40070;47.322;18.784;2022-11-14T02:19:21;1014.16;;;8.53;79.35
48810;BME280;40070;47.322;18.784;2022-11-14T02:21:23;1014.18;;;8.42;79.21
48810;BME280;40070;47.322;18.784;2022-11-14T02:23:29;1014.22;;;8.20;80.01
48810;BME280;40070;47.322;18.784;2022-11-14T02:25:32;1014.24;;;8.45;80.03
48810;BME280;40070;47.322;18.784;2022-11-14T02:27:34;1014.27;;;8.52;79.18
48810;BME280;40070;47.322;18.784;2022-11-14T02:29:37;1014.25;;;8.35;79.60
48810;BME280;40070;47.322;18.784;2022-11-14T02:31:39;1014.21;;;8.46;79.98
48810;BME280;40070;47.322;18.784;2022-11-14T02:33:42;1014.17;;;8.68;79.04
48810;BME280;40070;47.322;18.784;2022-11-14T02:35:44;1014.13;;;8.55;78.79
48810;BME280;40070;47.322;18.784;2022-11-14T02:37:46;1014.11;;;8.16;80.38
48810;BME280;40070;47.322;18.784;2022-11-14T02:39:49;1014.15;;;8.40;80.42
48810;BME280;40070;47.322;18.784;2022-11-14T02:41:51;1014.17;;;8.55;80.02
48810;BME280;40070;47.322;18.784;2022-11-14T02:43:54;1014.12;;;8.84;78.88
48810;BME280;40070;47.322;18.784;2022-11-14T02:45:56;1014.15;;;8.66;78.94
48810;BME280;40070;47.322;18.784;2022-11-14T02:47:58;1014.15;;;8.74;78.86
48810;BME280;40070;47.322;18.784;2022-11-14T02:50:01;1014.18;;;8.78;78.38
48810;BME280;40070;47.322;18.784;2022-11-14T02:52:03;1014.16;;;8.73;79.16
48810;BME280;40070;47.322;18.784;2022-11-14T02:54:06;1014.12;;;8.81;78.98
48810;BME280;40070;47.322;18.784;2022-11-14T02:56:08;1014.13;;;8.65;78.84
48810;BME280;40070;47.322;18.784;2022-11-14T02:58:10;1014.16;;;8.72;79.60
48810;BME280;40070;47.322;18.784;2022-11-14T03:00:13;1014.12;;;8.99;78.39
48810;BME280;40070;47.322;18.784;2022-11-14T03:02:15;1014.06;;;9.06;77.78
48810;BME280;40070;47.322;18.784;2022-11-14T03:04:18;1014.02;;;8.94;78.37
48810;BME280;40070;47.322;18.784;2022-11-14T03:06:20;1014.02;;;9.00;77.49
48810;BME280;40070;47.322;18.784;2022-11-14T03:08:22;1014.01;;;8.79;78.03
48810;BME280;40070;47.322;18.784;2022-11-14T03:10:25;1013.99;;;8.91;77.98
48810;BME280;40070;47.322;18.784;2022-11-14T03:12:27;1013.98;;;8.58;78.31
48810;BME280;40070;47.322;18.784;2022-11-14T03:14:30;1013.94;;;8.83;78.46
48810;BME280;40070;47.322;18.784;2022-11-14T03:16:32;1014.03;;;8.87;78.26
48810;BME280;40070;47.322;18.784;2022-11-14T03:18:35;1014.06;;;8.67;79.00
48810;BME280;40070;47.322;18.784;2022-11-14T03:20:37;1014.05;;;8.73;78.62
48810;BME280;40070;47.322;18.784;2022-11-14T03:22:39;1014.07;;;9.00;78.14
48810;BME280;40070;47.322;18.784;2022-11-14T03:24:42;1014.10;;;9.16;77.46
48810;BME280;40070;47.322;18.784;2022-11-14T03:26:44;1014.12;;;8.94;77.69
48810;BME280;40070;47.322;18.784;2022-11-14T03:28:46;1014.10;;;8.93;78.10
48810;BME280;40070;47.322;18.784;2022-11-14T03:30:49;1014.08;;;8.59;79.38
48810;BME280;40070;47.322;18.784;2022-11-14T03:32:51;1014.06;;;8.83;79.15
48810;BME280;40070;47.322;18.784;2022-11-14T03:34:53;1014.01;;;8.60;79.58
48810;BME280;40070;47.322;18.784;2022-11-14T03:36:56;1013.99;;;8.83;79.32
48810;BME280;40070;47.322;18.784;2022-11-14T03:38:58;1014.04;;;8.53;79.67
48810;BME280;40070;47.322;18.784;2022-11-14T03:41:00;1014.03;;;8.44;80.34
48810;BME280;40070;47.322;18.784;2022-11-14T03:43:03;1013.95;;;8.66;79.75
48810;BME280;40070;47.322;18.784;2022-11-14T03:45:05;1013.92;;;8.46;79.52
48810;BME280;40070;47.322;18.784;2022-11-14T03:47:08;1013.97;;;8.30;80.50
48810;BME280;40070;47.322;18.784;2022-11-14T03:49:10;1013.96;;;8.55;80.55
48810;BME280;40070;47.322;18.784;2022-11-14T03:51:12;1013.90;;;8.65;79.46
48810;BME280;40070;47.322;18.784;2022-11-14T03:53:15;1013.81;;;8.61;79.47
48810;BME280;40070;47.322;18.784;2022-11-14T03:55:17;1013.77;;;8.66;79.09
48810;BME280;40070;47.322;18.784;2022-11-14T03:57:19;1013.78;;;8.19;80.97
48810;BME280;40070;47.322;18.784;2022-11-14T03:59:22;1013.77;;;7.98;81.58
48810;BME280;40070;47.322;18.784;2022-11-14T04:01:24;1013.73;;;8.02;82.17
48810;BME280;40070;47.322;18.784;2022-11-14T04:03:26;1013.76;;;7.99;82.35
48810;BME280;40070;47.322;18.784;2022-11-14T04:05:29;1013.70;;;7.88;82.60
48810;BME280;40070;47.322;18.784;2022-11-14T04:07:31;1013.70;;;7.62;83.71
48810;BME280;40070;47.322;18.784;2022-11-14T04:09:33;1013.65;;;7.69;83.84
48810;BME280;40070;47.322;18.784;2022-11-14T04:11:36;1013.68;;;7.76;83.38
48810;BME280;40070;47.322;18.784;2022-11-14T04:13:38;1013.67;;;8.24;82.46
48810;BME280;40070;47.322;18.784;2022-11-14T04:15:41;1013.68;;;8.21;81.31
48810;BME280;40070;47.322;18.784;2022-11-14T04:17:43;1013.66;;;8.59;80.35
48810;BME280;40070;47.322;18.784;2022-11-14T04:19:46;1013.60;;;8.50;79.27
48810;BME280;40070;47.322;18.784;2022-11-14T04:21:48;1013.60;;;8.31;80.43
48810;BME280;40070;47.322;18.784;2022-11-14T04:23:50;1013.59;;;8.33;80.64
48810;BME280;40070;47.322;18.784;2022-11-14T04:25:53;1013.59;;;8.07;81.13
48810;BME280;40070;47.322;18.784;2022-11-14T04:27:55;1013.57;;;7.95;81.88
48810;BME280;40070;47.322;18.784;2022-11-14T04:29:57;1013.52;;;8.27;81.53
48810;BME280;40070;47.322;18.784;2022-11-14T04:32:00;1013.46;;;8.69;79.05
48810;BME280;40070;47.322;18.784;2022-11-14T04:34:02;1013.49;;;8.64;78.70
48810;BME280;40070;47.322;18.784;2022-11-14T04:36:05;1013.49;;;8.77;77.46
48810;BME280;40070;47.322;18.784;2022-11-14T04:38:08;1013.52;;;8.01;79.83
48810;BME280;40070;47.322;18.784;2022-11-14T04:40:10;1013.48;;;7.95;80.52
48810;BME280;40070;47.322;18.784;2022-11-14T04:42:13;1013.43;;;7.74;81.15
48810;BME280;40070;47.322;18.784;2022-11-14T04:44:15;1013.39;;;7.92;80.52
48810;BME280;40070;47.322;18.784;2022-11-14T04:46:17;1013.37;;;7.70;80.64
48810;BME280;40070;47.322;18.784;2022-11-14T04:48:20;1013.34;;;7.34;82.09
48810;BME280;40070;47.322;18.784;2022-11-14T04:50:22;1013.33;;;7.53;81.69
48810;BME280;40070;47.322;18.784;2022-11-14T04:52:24;1013.36;;;7.42;82.12
48810;BME280;40070;47.322;18.784;2022-11-14T04:54:27;1013.31;;;7.21;82.48
48810;BME280;40070;47.322;18.784;2022-11-14T04:56:29;1013.31;;;7.31;82.22
48810;BME280;40070;47.322;18.784;2022-11-14T04:58:31;1013.27;;;7.31;82.33
48810;BME280;40070;47.322;18.784;2022-11-14T05:00:34;1013.31;;;7.42;81.64
48810;BME280;40070;47.322;18.784;2022-11-14T05:02:36;1013.29;;;7.67;81.10
48810;BME280;40070;47.322;18.784;2022-11-14T05:04:38;1013.30;;;7.64;79.95
48810;BME280;40070;47.322;18.784;2022-11-14T05:06:41;1013.31;;;7.64;80.04
48810;BME280;40070;47.322;18.784;2022-11-14T05:08:43;1013.25;;;7.64;79.66
48810;BME280;40070;47.322;18.784;2022-11-14T05:10:45;1013.25;;;7.93;79.21
48810;BME280;40070;47.322;18.784;2022-11-14T05:12:48;1013.26;;;8.08;78.07
48810;BME280;40070;47.322;18.784;2022-11-14T05:14:53;1013.28;;;8.17;77.88
48810;BME280;40070;47.322;18.784;2022-11-14T05:16:56;1013.23;;;8.01;77.73
48810;BME280;40070;47.322;18.784;2022-11-14T05:18:58;1013.24;;;7.56;79.94
48810;BME280;40070;47.322;18.784;2022-11-14T05:21:00;1013.25;;;7.29;80.58
48810;BME280;40070;47.322;18.784;2022-11-14T05:23:03;1013.23;;;7.14;81.74
48810;BME280;40070;47.322;18.784;2022-11-14T05:25:06;1013.27;;;7.55;80.94
48810;BME280;40070;47.322;18.784;2022-11-14T05:27:08;1013.31;;;7.86;79.21
48810;BME280;40070;47.322;18.784;2022-11-14T05:29:10;1013.31;;;7.87;78.51
48810;BME280;40070;47.322;18.784;2022-11-14T05:31:13;1013.31;;;7.42;79.94
48810;BME280;40070;47.322;18.784;2022-11-14T05:33:16;1013.31;;;7.64;80.09
48810;BME280;40070;47.322;18.784;2022-11-14T05:35:18;1013.37;;;7.82;79.04
48810;BME280;40070;47.322;18.784;2022-11-14T05:37:20;1013.35;;;7.76;78.42
48810;BME280;40070;47.322;18.784;2022-11-14T05:39:23;1013.34;;;7.68;78.18
48810;BME280;40070;47.322;18.784;2022-11-14T05:41:25;1013.34;;;7.46;79.27
48810;BME280;40070;47.322;18.784;2022-11-14T05:43:27;1013.34;;;7.82;78.57
48810;BME280;40070;47.322;18.784;2022-11-14T05:45:30;1013.33;;;7.78;78.66
48810;BME280;40070;47.322;18.784;2022-11-14T05:47:33;1013.39;;;7.58;78.62
48810;BME280;40070;47.322;18.784;2022-11-14T05:49:35;1013.36;;;7.54;79.72
48810;BME280;40070;47.322;18.784;2022-11-14T05:51:37;1013.37;;;7.30;79.94
48810;BME280;40070;47.322;18.784;2022-11-14T05:53:40;1013.33;;;7.62;79.43
48810;BME280;40070;47.322;18.784;2022-11-14T05:55:42;1013.36;;;7.74;79.02
48810;BME280;40070;47.322;18.784;2022-11-14T05:57:44;1013.41;;;7.68;78.29
48810;BME280;40070;47.322;18.784;2022-11-14T05:59:47;1013.36;;;7.39;79.46
48810;BME280;40070;47.322;18.784;2022-11-14T06:01:49;1013.40;;;7.64;78.99
48810;BME280;40070;47.322;18.784;2022-11-14T06:03:51;1013.45;;;7.25;79.78
48810;BME280;40070;47.322;18.784;2022-11-14T06:05:54;1013.48;;;7.35;79.60
48810;BME280;40070;47.322;18.784;2022-11-14T06:07:57;1013.50;;;7.59;79.04
48810;BME280;40070;47.322;18.784;2022-11-14T06:09:59;1013.51;;;7.39;79.95
48810;BME280;40070;47.322;18.784;2022-11-14T06:12:02;1013.51;;;7.73;79.06
48810;BME280;40070;47.322;18.784;2022-11-14T06:14:04;1013.52;;;8.04;77.61
48810;BME280;40070;47.322;18.784;2022-11-14T06:16:09;1013.52;;;7.68;78.29
48810;BME280;40070;47.322;18.784;2022-11-14T06:18:11;1013.64;;;7.52;79.08
48810;BME280;40070;47.322;18.784;2022-11-14T06:20:14;1013.71;;;7.62;79.09
48810;BME280;40070;47.322;18.784;2022-11-14T06:22:16;1013.76;;;7.74;78.73
48810;BME280;40070;47.322;18.784;2022-11-14T06:24:18;1013.81;;;7.76;78.37
48810;BME280;40070;47.322;18.784;2022-11-14T06:26:24;1013.79;;;7.99;78.16
48810;BME280;40070;47.322;18.784;2022-11-14T06:28:27;1013.74;;;7.85;78.14
48810;BME280;40070;47.322;18.784;2022-11-14T06:30:30;1013.83;;;7.62;79.03
48810;BME280;40070;47.322;18.784;2022-11-14T06:32:32;1013.83;;;7.95;78.89
48810;BME280;40070;47.322;18.784;2022-11-14T06:34:34;1013.81;;;8.22;78.09
48810;BME280;40070;47.322;18.784;2022-11-14T06:36:37;1013.80;;;8.01;78.42
48810;BME280;40070;47.322;18.784;2022-11-14T06:38:39;1013.79;;;7.98;78.39
48810;BME280;40070;47.322;18.784;2022-11-14T06:40:42;1013.77;;;7.92;79.62
48810;BME280;40070;47.322;18.784;2022-11-14T06:42:44;1013.76;;;7.96;79.09
48810;BME280;40070;47.322;18.784;2022-11-14T06:44:46;1013.74;;;8.15;79.34
48810;BME280;40070;47.322;18.784;2022-11-14T06:46:49;1013.75;;;8.21;79.05
48810;BME280;40070;47.322;18.784;2022-11-14T06:48:51;1013.76;;;8.22;78.16
48810;BME280;40070;47.322;18.784;2022-11-14T06:50:54;1013.71;;;8.13;78.64
48810;BME280;40070;47.322;18.784;2022-11-14T06:52:57;1013.72;;;8.48;78.16
48810;BME280;40070;47.322;18.784;2022-11-14T06:54:59;1013.73;;;8.34;77.97
48810;BME280;40070;47.322;18.784;2022-11-14T06:57:02;1013.76;;;8.43;78.27
48810;BME280;40070;47.322;18.784;2022-11-14T06:59:04;1013.73;;;8.35;78.13
48810;BME280;40070;47.322;18.784;2022-11-14T07:01:07;1013.69;;;8.26;78.51
48810;BME280;40070;47.322;18.784;2022-11-14T07:03:11;1013.67;;;8.51;78.19
48810;BME280;40070;47.322;18.784;2022-11-14T07:05:14;1013.72;;;8.23;78.03
48810;BME280;40070;47.322;18.784;2022-11-14T07:07:16;1013.70;;;8.44;77.46
48810;BME280;40070;47.322;18.784;2022-11-14T07:09:18;1013.73;;;8.34;77.62
48810;BME280;40070;47.322;18.784;2022-11-14T07:11:22;1013.70;;;8.32;78.04
48810;BME280;40070;47.322;18.784;2022-11-14T07:13:24;1013.77;;;8.49;77.96
48810;BME280;40070;47.322;18.784;2022-11-14T07:15:27;1013.78;;;8.44;78.06
48810;BME280;40070;47.322;18.784;2022-11-14T07:17:29;1013.73;;;8.38;78.26
48810;BME280;40070;47.322;18.784;2022-11-14T07:19:31;1013.76;;;8.52;78.21
48810;BME280;40070;47.322;18.784;2022-11-14T07:21:34;1013.74;;;8.57;77.85
48810;BME280;40070;47.322;18.784;2022-11-14T07:23:36;1013.77;;;8.50;78.47
48810;BME280;40070;47.322;18.784;2022-11-14T07:25:39;1013.81;;;8.67;78.09
48810;BME280;40070;47.322;18.784;2022-11-14T07:27:41;1013.78;;;8.28;79.51
48810;BME280;40070;47.322;18.784;2022-11-14T07:29:43;1013.83;;;8.60;78.23
48810;BME280;40070;47.322;18.784;2022-11-14T07:31:46;1013.87;;;8.73;77.25
48810;BME280;40070;47.322;18.784;2022-11-14T07:33:48;1013.86;;;9.01;76.46
48810;BME280;40070;47.322;18.784;2022-11-14T07:35:50;1013.88;;;9.06;76.04
48810;BME280;40070;47.322;18.784;2022-11-14T07:37:53;1013.85;;;8.84;76.69
48810;BME280;40070;47.322;18.784;2022-11-14T07:40:02;1013.82;;;8.76;77.24
48810;BME280;40070;47.322;18.784;2022-11-14T07:42:04;1013.84;;;8.94;77.00
48810;BME280;40070;47.322;18.784;2022-11-14T07:44:06;1013.79;;;8.93;76.95
48810;BME280;40070;47.322;18.784;2022-11-14T07:46:10;1013.73;;;8.82;77.16
48810;BME280;40070;47.322;18.784;2022-11-14T07:48:13;1013.74;;;8.44;79.07
48810;BME280;40070;47.322;18.784;2022-11-14T07:50:15;1013.70;;;8.80;78.49
48810;BME280;40070;47.322;18.784;2022-11-14T07:52:17;1013.76;;;9.02;77.60
48810;BME280;40070;47.322;18.784;2022-11-14T07:54:20;1013.76;;;9.17;76.74
48810;BME280;40070;47.322;18.784;2022-11-14T07:56:22;1013.76;;;9.17;76.62
48810;BME280;40070;47.322;18.784;2022-11-14T07:58:24;1013.74;;;9.16;76.14
48810;BME280;40070;47.322;18.784;2022-11-14T08:00:27;1013.71;;;9.00;77.33
48810;BME280;40070;47.322;18.784;2022-11-14T08:02:29;1013.72;;;9.27;76.99
48810;BME280;40070;47.322;18.784;2022-11-14T08:04:32;1013.77;;;9.23;76.47
48810;BME280;40070;47.322;18.784;2022-11-14T08:06:34;1013.71;;;9.43;75.92
48810;BME280;40070;47.322;18.784;2022-11-14T08:08:36;1013.77;;;9.27;75.57
48810;BME280;40070;47.322;18.784;2022-11-14T08:10:39;1013.71;;;9.42;75.68
48810;BME280;40070;47.322;18.784;2022-11-14T08:12:41;1013.74;;;9.35;75.28
48810;BME280;40070;47.322;18.784;2022-11-14T08:14:43;1013.66;;;9.44;75.36
48810;BME280;40070;47.322;18.784;2022-11-14T08:16:46;1013.65;;;9.58;74.62
48810;BME280;40070;47.322;18.784;2022-11-14T08:18:48;1013.64;;;8.96;76.39
48810;BME280;40070;47.322;18.784;2022-11-14T08:20:51;1013.56;;;9.09;76.89
48810;BME280;40070;47.322;18.784;2022-11-14T08:22:53;1013.56;;;9.13;76.53
48810;BME280;40070;47.322;18.784;2022-11-14T08:24:56;1013.50;;;9.42;75.32
48810;BME280;40070;47.322;18.784;2022-11-14T08:26:59;1013.47;;;9.42;74.87
48810;BME280;40070;47.322;18.784;2022-11-14T08:29:01;1013.46;;;9.41;75.28
48810;BME280;40070;47.322;18.784;2022-11-14T08:31:03;1013.44;;;9.43;75.71
48810;BME280;40070;47.322;18.784;2022-11-14T08:33:06;1013.44;;;9.34;75.54
48810;BME280;40070;47.322;18.784;2022-11-14T08:35:09;1013.46;;;9.52;75.08
48810;BME280;40070;47.322;18.784;2022-11-14T08:37:11;1013.46;;;9.43;75.30
48810;BME280;40070;47.322;18.784;2022-11-14T08:39:13;1013.44;;;9.44;75.22
48810;BME280;40070;47.322;18.784;2022-11-14T08:41:16;1013.46;;;9.27;76.38
48810;BME280;40070;47.322;18.784;2022-11-14T08:43:18;1013.48;;;9.43;75.48
48810;BME280;40070;47.322;18.784;2022-11-14T08:45:20;1013.41;;;9.68;74.11
48810;BME280;40070;47.322;18.784;2022-11-14T08:47:23;1013.41;;;9.72;74.02
48810;BME280;40070;47.322;18.784;2022-11-14T08:49:28;1013.44;;;9.44;75.23
48810;BME280;40070;47.322;18.784;2022-11-14T08:51:30;1013.43;;;9.02;77.27
48810;BME280;40070;47.322;18.784;2022-11-14T08:53:33;1013.42;;;8.65;78.20
48810;BME280;40070;47.322;18.784;2022-11-14T08:55:35;1013.43;;;8.72;78.88
48810;BME280;40070;47.322;18.784;2022-11-14T08:57:38;1013.46;;;8.67;78.87
48810;BME280;40070;47.322;18.784;2022-11-14T08:59:40;1013.49;;;8.66;79.43
48810;BME280;40070;47.322;18.784;2022-11-14T09:01:43;1013.53;;;9.05;77.60
48810;BME280;40070;47.322;18.784;2022-11-14T09:03:45;1013.45;;;9.07;76.99
48810;BME280;40070;47.322;18.784;2022-11-14T09:05:51;1013.45;;;9.32;76.43
48810;BME280;40070;47.322;18.784;2022-11-14T09:07:54;1013.44;;;9.29;75.52
48810;BME280;40070;47.322;18.784;2022-11-14T09:09:56;1013.45;;;9.59;74.85
48810;BME280;40070;47.322;18.784;2022-11-14T09:11:58;1013.45;;;9.34;74.78
48810;BME280;40070;47.322;18.784;2022-11-14T09:14:01;1013.45;;;9.63;73.81
48810;BME280;40070;47.322;18.784;2022-11-14T09:16:03;1013.42;;;9.74;73.69
48810;BME280;40070;47.322;18.784;2022-11-14T09:18:06;1013.40;;;9.41;74.55
48810;BME280;40070;47.322;18.784;2022-11-14T09:20:08;1013.38;;;9.23;75.98
48810;BME280;40070;47.322;18.784;2022-11-14T09:22:10;1013.34;;;9.17;76.35
48810;BME280;40070;47.322;18.784;2022-11-14T09:24:13;1013.33;;;9.30;75.81
48810;BME280;40070;47.322;18.784;2022-11-14T09:26:15;1013.37;;;9.46;75.01
48810;BME280;40070;47.322;18.784;2022-11-14T09:28:18;1013.34;;;9.71;73.92
48810;BME280;40070;47.322;18.784;2022-11-14T09:30:20;1013.34;;;9.50;74.16
48810;BME280;40070;47.322;18.784;2022-11-14T09:32:22;1013.33;;;9.56;74.26
48810;BME280;40070;47.322;18.784;2022-11-14T09:34:25;1013.35;;;9.46;74.31
48810;BME280;40070;47.322;18.784;2022-11-14T09:36:27;1013.33;;;9.91;72.67
48810;BME280;40070;47.322;18.784;2022-11-14T09:38:30;1013.30;;;10.05;72.02
48810;BME280;40070;47.322;18.784;2022-11-14T09:40:45;1013.29;;;9.94;72.53
48810;BME280;40070;47.322;18.784;2022-11-14T09:43:10;1013.26;;;9.99;72.59
48810;BME280;40070;47.322;18.784;2022-11-14T09:45:16;1013.24;;;9.81;73.15
48810;BME280;40070;47.322;18.784;2022-11-14T09:47:19;1013.20;;;9.91;72.98
48810;BME280;40070;47.322;18.784;2022-11-14T09:51:43;1013.20;;;9.93;73.04
48810;BME280;40070;47.322;18.784;2022-11-14T09:54:31;1013.21;;;10.07;73.08
48810;BME280;40070;47.322;18.784;2022-11-14T09:56:07;1013.17;;;9.63;73.32
48810;BME280;40070;47.322;18.784;2022-11-14T09:58:13;1013.09;;;9.49;74.09
48810;BME280;40070;47.322;18.784;2022-11-14T10:00:19;1013.06;;;9.65;73.33
48810;BME280;40070;47.322;18.784;2022-11-14T10:04:59;1013.00;;;9.53;75.06
48810;BME280;40070;47.322;18.784;2022-11-14T10:07:10;1012.94;;;9.80;74.18
48810;BME280;40070;47.322;18.784;2022-11-14T10:09:23;1012.91;;;9.70;74.26
48810;BME280;40070;47.322;18.784;2022-11-14T10:11:34;1012.91;;;9.97;73.51
48810;BME280;40070;47.322;18.784;2022-11-14T10:16:18;1012.90;;;9.88;73.72
48810;BME280;40070;47.322;18.784;2022-11-14T10:18:26;1012.85;;;10.09;72.74
48810;BME280;40070;47.322;18.784;2022-11-14T10:20:33;1012.88;;;10.26;72.27
48810;BME280;40070;47.322;18.784;2022-11-14T10:22:56;1012.81;;;10.47;72.22
48810;BME280;40070;47.322;18.784;2022-11-14T10:25:06;1012.77;;;10.71;71.34
48810;BME280;40070;47.322;18.784;2022-11-14T10:27:17;1012.69;;;10.84;69.24
48810;BME280;40070;47.322;18.784;2022-11-14T10:31:50;1012.74;;;10.19;71.81
48810;BME280;40070;47.322;18.784;2022-11-14T10:34:05;1012.73;;;10.31;71.12
48810;BME280;40070;47.322;18.784;2022-11-14T10:38:44;1012.63;;;10.60;70.94
48810;BME280;40070;47.322;18.784;2022-11-14T10:40:48;1012.51;;;10.81;70.94
48810;BME280;40070;47.322;18.784;2022-11-14T10:42:55;1012.48;;;11.33;70.14
48810;BME280;40070;47.322;18.784;2022-11-14T10:45:06;1012.42;;;11.75;68.18
48810;BME280;40070;47.322;18.784;2022-11-14T10:47:13;1012.47;;;11.79;67.75
48810;BME280;40070;47.322;18.784;2022-11-14T10:49:18;1012.44;;;12.14;66.37
48810;BME280;40070;47.322;18.784;2022-11-14T10:51:23;1012.43;;;12.32;65.88
48810;BME280;40070;47.322;18.784;2022-11-14T10:55:48;1012.35;;;13.07;63.62
48810;BME280;40070;47.322;18.784;2022-11-14T10:57:51;1012.35;;;12.86;63.89
48810;BME280;40070;47.322;18.784;2022-11-14T10:59:53;1012.30;;;13.32;61.88
48810;BME280;40070;47.322;18.784;2022-11-14T11:01:57;1012.29;;;13.57;61.42
48810;BME280;40070;47.322;18.784;2022-11-14T11:04:13;1012.22;;;13.81;60.75
48810;BME280;40070;47.322;18.784;2022-11-14T11:06:25;1012.15;;;13.40;60.49
48810;BME280;40070;47.322;18.784;2022-11-14T11:08:28;1012.16;;;13.42;61.14
48810;BME280;40070;47.322;18.784;2022-11-14T11:10:31;1012.14;;;13.65;60.68
48810;BME280;40070;47.322;18.784;2022-11-14T11:12:41;1012.09;;;13.53;60.53
48810;BME280;40070;47.322;18.784;2022-11-14T11:14:45;1012.08;;;13.22;61.74
48810;BME280;40070;47.322;18.784;2022-11-14T11:16:47;1012.01;;;12.91;62.49